createdAt,value
2023-04-18T00:00:13.094Z,2.40
2023-04-18T00:03:18.475Z,2.37
2023-04-18T00:06:23.107Z,2.07
2023-04-18T00:09:27.031Z,2.12
2023-04-18T00:12:30.045Z,2.12
2023-04-18T00:15:35.048Z,2.32
2023-04-18T00:18:38.514Z,2.61
2023-04-18T00:21:45.309Z,3.12
2023-04-18T00:24:49.040Z,3.05
2023-04-18T00:27:51.898Z,3.12
2023-04-18T00:30:55.970Z,2.76
2023-04-18T00:33:59.402Z,2.84
2023-04-18T00:37:02.686Z,3.04
2023-04-18T00:40:06.490Z,3.00
2023-04-18T00:43:11.114Z,3.38
2023-04-18T00:46:16.609Z,3.97
2023-04-18T00:49:21.061Z,4.47
2023-04-18T00:52:27.636Z,4.51
2023-04-18T00:55:31.236Z,4.45
2023-04-18T00:58:35.360Z,4.92
2023-04-18T01:01:40.631Z,4.82
2023-04-18T01:04:44.840Z,4.86
2023-04-18T01:07:48.583Z,4.91
2023-04-18T01:10:52.984Z,5.28
2023-04-18T01:14:08.752Z,5.81
2023-04-18T01:17:12.125Z,6.09
2023-04-18T01:20:17.272Z,6.28
2023-04-18T01:23:22.119Z,6.36
2023-04-18T01:26:25.830Z,6.81
2023-04-18T01:29:30.054Z,7.26
2023-04-18T01:32:32.993Z,7.69
2023-04-18T01:35:36.922Z,7.21
2023-04-18T01:38:39.902Z,6.98
2023-04-18T01:41:43.493Z,6.47
2023-04-18T01:44:47.798Z,5.96
2023-04-18T01:47:51.263Z,6.08
2023-04-18T01:50:54.294Z,6.14
2023-04-18T01:53:57.588Z,5.52
2023-04-18T01:57:00.845Z,5.26
2023-04-18T02:00:09.136Z,5.47
2023-04-18T02:03:18.557Z,5.19
2023-04-18T02:06:22.505Z,5.48
2023-04-18T02:09:26.148Z,5.31
2023-04-18T02:12:30.126Z,5.27
2023-04-18T02:15:33.847Z,5.62
2023-04-18T02:18:37.969Z,6.42
2023-04-18T02:21:42.544Z,6.45
2023-04-18T02:24:46.062Z,6.26
2023-04-18T02:27:51.295Z,6.75
2023-04-18T02:30:54.318Z,7.22
2023-04-18T02:33:57.845Z,6.58
2023-04-18T02:37:01.842Z,6.75
2023-04-18T02:40:06.214Z,6.69
2023-04-18T02:43:10.386Z,6.54
2023-04-18T02:46:14.228Z,6.13
2023-04-18T02:49:19.070Z,5.73
2023-04-18T02:52:24.202Z,5.82
2023-04-18T02:55:28.399Z,5.97
2023-04-18T02:58:36.974Z,6.18
2023-04-18T03:02:00.203Z,6.83
2023-04-18T03:05:04.616Z,6.80
2023-04-18T03:08:09.654Z,6.36
2023-04-18T03:11:14.333Z,5.64
2023-04-18T03:14:17.173Z,5.27
2023-04-18T03:17:26.050Z,4.96
2023-04-18T03:20:29.934Z,5.10
2023-04-18T03:23:33.642Z,5.59
2023-04-18T03:26:40.034Z,5.87
2023-04-18T03:29:43.916Z,6.06
2023-04-18T03:32:49.892Z,6.05
2023-04-18T03:35:53.038Z,6.13
2023-04-18T03:38:57.295Z,6.46
2023-04-18T03:42:02.650Z,6.62
2023-04-18T03:45:06.643Z,6.80
2023-04-18T03:48:11.624Z,6.99
2023-04-18T03:51:19.313Z,7.07
2023-04-18T03:54:23.006Z,7.00
2023-04-18T03:57:26.970Z,7.00
2023-04-18T04:00:31.021Z,7.23
2023-04-18T04:03:44.399Z,7.19
2023-04-18T04:06:47.806Z,7.45
2023-04-18T04:09:52.675Z,7.51
2023-04-18T04:12:55.959Z,7.43
2023-04-18T04:15:59.970Z,7.38
2023-04-18T04:19:03.401Z,7.49
2023-04-18T04:22:13.348Z,7.76
2023-04-18T04:25:18.827Z,8.03
2023-04-18T04:28:24.122Z,8.54
2023-04-18T04:31:33.464Z,8.71
2023-04-18T04:34:37.313Z,8.87
2023-04-18T04:37:44.585Z,8.87
2023-04-18T04:40:59.102Z,8.95
2023-04-18T04:44:02.797Z,8.70
2023-04-18T04:47:08.624Z,8.90
2023-04-18T04:50:16.195Z,8.94
2023-04-18T04:53:20.372Z,9.05
2023-04-18T04:56:24.827Z,8.89
2023-04-18T04:59:31.038Z,8.64
2023-04-18T05:02:36.218Z,8.52
2023-04-18T05:05:39.899Z,8.34
2023-04-18T05:08:43.549Z,7.99
2023-04-18T05:11:50.175Z,8.05
2023-04-18T05:14:52.963Z,8.36
2023-04-18T05:17:56.498Z,8.48
2023-04-18T05:21:00.186Z,8.32
2023-04-18T05:24:04.222Z,8.16
2023-04-18T05:27:08.240Z,7.89
2023-04-18T05:30:12.677Z,7.37
2023-04-18T05:33:15.939Z,7.50
2023-04-18T05:36:19.666Z,7.53
2023-04-18T05:39:22.643Z,7.57
2023-04-18T05:42:26.381Z,7.57
2023-04-18T05:45:29.330Z,7.34
2023-04-18T05:48:33.588Z,7.36
2023-04-18T05:51:36.920Z,7.19
2023-04-18T05:54:40.883Z,7.40
2023-04-18T05:57:44.561Z,7.44
2023-04-18T06:00:49.233Z,7.20
2023-04-18T06:03:53.110Z,6.94
2023-04-18T06:06:57.289Z,7.14
2023-04-18T06:10:00.990Z,7.28
2023-04-18T06:13:04.918Z,7.14
2023-04-18T06:16:09.156Z,7.38
2023-04-18T06:19:13.150Z,7.62
2023-04-18T06:22:16.458Z,8.01
2023-04-18T06:25:20.589Z,7.93
2023-04-18T06:28:24.431Z,7.99
2023-04-18T06:31:28.775Z,8.11
2023-04-18T06:34:32.599Z,7.81
2023-04-18T06:37:36.289Z,7.76
2023-04-18T06:40:39.944Z,7.76
2023-04-18T06:43:52.395Z,7.71
2023-04-18T06:47:06.531Z,7.54
2023-04-18T06:50:10.506Z,7.25
2023-04-18T06:53:14.342Z,6.98
2023-04-18T06:56:18.509Z,6.90
2023-04-18T06:59:22.325Z,6.94
2023-04-18T07:02:26.457Z,7.01
2023-04-18T07:05:30.486Z,7.21
2023-04-18T07:08:35.531Z,7.54
2023-04-18T07:11:41.063Z,7.64
2023-04-18T07:14:45.379Z,7.71
2023-04-18T07:17:49.207Z,7.73
2023-04-18T07:20:53.283Z,7.87
2023-04-18T07:23:57.018Z,7.89
2023-04-18T07:27:00.902Z,7.92
2023-04-18T07:30:04.850Z,8.01
2023-04-18T07:33:08.487Z,7.61
2023-04-18T07:36:12.030Z,7.49
2023-04-18T07:39:16.105Z,7.80
2023-04-18T07:42:19.717Z,7.47
2023-04-18T07:45:23.789Z,7.53
2023-04-18T07:48:27.612Z,7.55
2023-04-18T07:51:35.942Z,7.10
2023-04-18T07:54:39.614Z,6.35
2023-04-18T07:57:51.177Z,6.45
2023-04-18T08:00:55.125Z,6.16
2023-04-18T08:04:02.247Z,5.95
2023-04-18T08:07:05.299Z,6.42
2023-04-18T08:10:09.024Z,6.69
2023-04-18T08:13:15.531Z,6.91
2023-04-18T08:16:19.226Z,7.02
2023-04-18T08:19:22.241Z,7.05
2023-04-18T08:22:25.205Z,6.76
2023-04-18T08:25:28.126Z,6.58
2023-04-18T08:44:18.632Z,6.37
2023-04-18T08:47:22.220Z,6.35
2023-04-18T08:50:26.445Z,6.32
2023-04-18T08:53:30.065Z,6.37
2023-04-18T08:56:35.903Z,6.32
2023-04-18T08:59:40.758Z,6.18
2023-04-18T09:02:45.353Z,5.88
2023-04-18T09:06:10.886Z,5.96
2023-04-18T09:09:15.227Z,5.98
2023-04-18T09:12:23.173Z,6.17
2023-04-18T09:15:30.120Z,6.10
2023-04-18T09:18:33.887Z,6.26
2023-04-18T09:21:41.716Z,5.84
2023-04-18T09:24:58.002Z,5.45
2023-04-18T09:28:05.989Z,4.99
2023-04-18T09:31:16.093Z,4.88
2023-04-18T09:34:25.811Z,4.82
2023-04-18T09:37:30.300Z,4.88
2023-04-18T09:40:34.485Z,4.86
2023-04-18T09:43:38.427Z,4.96
2023-04-18T09:46:42.239Z,5.00
2023-04-18T09:49:46.307Z,5.04
2023-04-18T09:52:50.142Z,4.89
2023-04-18T09:55:57.499Z,4.78
2023-04-18T09:59:11.155Z,4.66
2023-04-18T10:02:25.873Z,4.68
2023-04-18T10:05:33.135Z,4.82
2023-04-18T10:08:37.077Z,4.74
2023-04-18T10:11:41.850Z,4.85
2023-04-18T10:14:45.444Z,4.90
2023-04-18T10:18:05.064Z,4.54
2023-04-18T10:21:09.917Z,4.33
2023-04-18T10:24:57.023Z,4.42
2023-04-18T10:28:02.708Z,4.44
2023-04-18T10:31:08.721Z,4.11
2023-04-18T10:34:18.159Z,3.96
2023-04-18T10:37:22.078Z,3.72
2023-04-18T10:40:35.274Z,3.60
2023-04-18T10:44:16.277Z,3.41
2023-04-18T10:47:21.961Z,3.34
2023-04-18T10:53:59.626Z,3.27
2023-04-18T10:57:05.069Z,3.11
2023-04-18T11:00:12.288Z,3.07
2023-04-18T11:03:16.057Z,3.13
2023-04-18T11:06:19.248Z,3.13
2023-04-18T11:09:23.211Z,3.16
2023-04-18T11:12:32.523Z,3.17
2023-04-18T11:15:37.894Z,3.20
2023-04-18T11:18:42.570Z,3.34
2023-04-18T11:21:46.381Z,3.40
2023-04-18T11:24:50.054Z,3.16
2023-04-18T11:27:55.607Z,2.95
2023-04-18T11:31:03.828Z,2.89
2023-04-18T11:34:06.783Z,2.82
2023-04-18T11:37:09.833Z,2.79
2023-04-18T11:40:14.577Z,2.72
2023-04-18T11:43:26.089Z,2.66
2023-04-18T11:46:39.414Z,2.63
2023-04-18T11:49:43.113Z,2.57
2023-04-18T11:52:50.992Z,2.54
2023-04-18T11:55:57.686Z,2.50
2023-04-18T11:59:09.673Z,2.48
2023-04-18T12:02:16.803Z,2.43
2023-04-18T12:05:29.936Z,2.43
2023-04-18T12:08:34.260Z,2.56
2023-04-18T12:11:37.125Z,2.68
2023-04-18T12:14:40.398Z,2.63
2023-04-18T12:17:54.976Z,2.67
2023-04-18T12:21:02.484Z,2.70
2023-04-18T12:24:16.889Z,2.68
2023-04-18T12:27:19.901Z,2.62
2023-04-18T12:30:28.669Z,2.58
2023-04-18T12:33:32.332Z,2.56
2023-04-18T12:36:36.066Z,2.53
2023-04-18T12:39:39.737Z,2.53
2023-04-18T12:42:44.013Z,2.51
2023-04-18T12:45:47.965Z,2.53
2023-04-18T12:48:50.933Z,2.53
2023-04-18T12:51:53.919Z,2.47
2023-04-18T12:54:57.422Z,2.45
2023-04-18T12:58:01.235Z,2.40
2023-04-18T13:01:05.979Z,2.45
2023-04-18T13:04:12.914Z,2.40
2023-04-18T13:07:16.831Z,2.26
2023-04-18T13:10:21.919Z,2.01
2023-04-18T13:13:26.052Z,1.71
2023-04-18T13:16:29.403Z,1.50
2023-04-18T13:19:33.705Z,1.35
2023-04-18T13:22:38.347Z,1.23
2023-04-18T13:25:42.955Z,1.15
2023-04-18T13:28:47.093Z,0.98
2023-04-18T13:31:50.340Z,0.91
2023-04-18T13:34:54.068Z,0.91
2023-04-18T13:37:58.111Z,1.00
2023-04-18T13:41:11.314Z,1.03
2023-04-18T13:44:17.089Z,1.02
2023-04-18T13:47:20.386Z,1.00
2023-04-18T13:50:24.192Z,0.87
2023-04-18T13:53:30.259Z,0.81
2023-04-18T13:56:35.095Z,0.68
2023-04-18T13:59:42.958Z,0.74
2023-04-18T14:02:47.102Z,0.88
2023-04-18T14:05:50.947Z,0.88
2023-04-18T14:08:55.379Z,0.87
2023-04-18T14:11:59.053Z,0.90
2023-04-18T14:15:03.011Z,0.79
2023-04-18T14:18:07.055Z,0.61
2023-04-18T14:21:09.980Z,0.56
2023-04-18T14:24:13.071Z,0.58
2023-04-18T14:27:17.056Z,0.64
2023-04-18T14:30:20.300Z,0.67
2023-04-18T14:33:24.990Z,0.64
2023-04-18T14:36:28.549Z,0.58
2023-04-18T14:39:32.596Z,0.55
2023-04-18T14:42:36.400Z,0.45
2023-04-18T14:45:40.317Z,0.37
2023-04-18T14:48:46.959Z,0.31
2023-04-18T14:51:49.819Z,0.28
2023-04-18T14:54:53.445Z,0.32
2023-04-18T14:57:56.872Z,0.41
2023-04-18T15:01:00.968Z,0.46
2023-04-18T15:04:05.023Z,0.53
2023-04-18T15:07:09.489Z,0.56
2023-04-18T15:10:13.565Z,0.48
2023-04-18T15:13:17.278Z,0.41
2023-04-18T15:16:20.980Z,0.41
2023-04-18T15:19:24.426Z,0.44
2023-04-18T15:22:27.907Z,0.50
2023-04-18T15:25:31.632Z,0.51
2023-04-18T15:28:34.883Z,0.45
2023-04-18T15:31:39.154Z,0.37
2023-04-18T15:34:42.603Z,0.22
2023-04-18T15:37:46.330Z,0.13
2023-04-18T15:40:50.521Z,0.23
2023-04-18T15:43:54.130Z,0.37
2023-04-18T15:46:58.654Z,0.48
2023-04-18T15:50:03.892Z,0.45
2023-04-18T15:53:07.820Z,0.37
2023-04-18T15:56:11.495Z,0.26
2023-04-18T15:59:15.677Z,0.18
2023-04-18T16:02:19.381Z,0.15
2023-04-18T16:05:22.776Z,0.20
2023-04-18T16:08:26.416Z,0.25
2023-04-18T16:11:30.477Z,0.28
2023-04-18T16:14:34.270Z,0.36
2023-04-18T16:17:38.957Z,0.39
2023-04-18T16:20:42.213Z,0.39
2023-04-18T16:23:45.404Z,0.37
2023-04-18T16:26:49.192Z,0.37
2023-04-18T16:29:54.700Z,0.39
2023-04-18T16:32:57.992Z,0.47
2023-04-18T16:36:05.147Z,0.48
2023-04-18T16:39:08.233Z,0.37
2023-04-18T16:42:13.337Z,0.37
2023-04-18T16:45:17.858Z,0.46
2023-04-18T16:48:20.994Z,0.72
2023-04-18T16:51:25.052Z,0.96
2023-04-18T16:54:28.055Z,1.02
2023-04-18T16:57:31.156Z,0.86
2023-04-18T17:00:36.427Z,0.85
2023-04-18T17:03:42.972Z,0.87
2023-04-18T17:06:47.250Z,0.87
2023-04-18T17:09:50.985Z,0.74
2023-04-18T17:12:55.085Z,0.75
2023-04-18T17:15:59.281Z,0.73
2023-04-18T17:19:02.970Z,0.71
2023-04-18T17:22:06.344Z,0.57
2023-04-18T17:25:09.768Z,0.45
2023-04-18T17:28:14.814Z,0.49
2023-04-18T17:31:18.449Z,0.45
2023-04-18T17:34:22.324Z,0.36
2023-04-18T17:37:26.490Z,0.26
2023-04-18T17:40:29.642Z,0.25
2023-04-18T17:43:33.352Z,0.27
2023-04-18T17:46:36.540Z,0.22
2023-04-18T17:49:40.578Z,0.12
2023-04-18T17:52:44.521Z,0.16
2023-04-18T17:55:50.947Z,0.37
2023-04-18T17:58:56.526Z,0.49
2023-04-18T18:02:00.743Z,0.32
2023-04-18T18:05:03.594Z,0.04
2023-04-18T18:08:07.375Z,-0.07
2023-04-18T18:11:11.657Z,-0.10
2023-04-18T18:14:14.917Z,-0.09
2023-04-18T18:17:18.958Z,0.04
2023-04-18T18:20:23.058Z,0.15
2023-04-18T18:23:26.018Z,0.29
2023-04-18T18:26:29.039Z,0.44
2023-04-18T18:29:32.781Z,0.45
2023-04-18T18:32:35.756Z,0.52
2023-04-18T18:35:38.746Z,0.49
2023-04-18T18:38:42.374Z,0.53
2023-04-18T18:41:46.422Z,0.67
2023-04-18T18:44:49.987Z,0.70
2023-04-18T18:47:53.927Z,0.55
2023-04-18T18:50:58.835Z,0.59
2023-04-18T18:54:02.762Z,0.49
2023-04-18T18:57:06.128Z,0.50
2023-04-18T19:00:14.270Z,0.57
2023-04-18T19:03:19.823Z,0.45
2023-04-18T19:06:23.832Z,0.47
2023-04-18T19:09:27.925Z,0.44
2023-04-18T19:12:32.484Z,0.37
2023-04-18T19:15:36.142Z,0.28
2023-04-18T19:18:42.376Z,0.26
2023-04-18T19:21:46.714Z,0.20
2023-04-18T19:24:50.793Z,0.18
2023-04-18T19:27:54.413Z,0.11
2023-04-18T19:30:58.308Z,0.18
2023-04-18T19:34:01.795Z,0.12
2023-04-18T19:37:06.128Z,0.22
2023-04-18T19:40:10.746Z,0.27
2023-04-18T19:43:14.532Z,0.36
2023-04-18T19:46:18.311Z,0.34
2023-04-18T19:49:23.377Z,0.29
2023-04-18T19:52:27.299Z,0.12
2023-04-18T19:55:32.637Z,0.02
2023-04-18T19:58:46.689Z,0.14
2023-04-18T20:01:50.386Z,0.08
2023-04-18T20:04:53.543Z,0.03
2023-04-18T20:07:57.606Z,0.04
2023-04-18T20:11:01.155Z,-0.01
2023-04-18T20:14:05.361Z,-0.11
2023-04-18T20:17:09.171Z,-0.13
2023-04-18T20:20:13.973Z,-0.04
2023-04-18T20:23:18.003Z,0.04
2023-04-18T20:26:21.698Z,0.08
2023-04-18T20:29:26.337Z,0.14
2023-04-18T20:32:29.680Z,0.18
2023-04-18T20:35:33.301Z,0.18
2023-04-18T20:38:37.887Z,0.38
2023-04-18T20:41:47.107Z,0.67
2023-04-18T20:44:50.882Z,0.97
2023-04-18T20:47:54.549Z,1.17
2023-04-18T20:50:58.606Z,1.12
2023-04-18T20:54:02.684Z,0.90
2023-04-18T20:57:06.326Z,0.63
2023-04-18T21:00:11.077Z,0.50
2023-04-18T21:03:15.726Z,0.54
2023-04-18T21:06:22.761Z,0.61
2023-04-18T21:09:26.894Z,0.69
2023-04-18T21:12:30.822Z,0.72
2023-04-18T21:15:36.656Z,0.57
2023-04-18T21:18:40.218Z,0.43
2023-04-18T21:21:44.196Z,0.40
2023-04-18T21:24:47.859Z,0.25
2023-04-18T21:27:52.014Z,0.15
2023-04-18T21:30:55.939Z,0.09
2023-04-18T21:34:04.743Z,0.05
2023-04-18T21:37:07.787Z,0.09
2023-04-18T21:40:12.157Z,0.29
2023-04-18T21:43:15.103Z,0.45
2023-04-18T21:46:18.718Z,0.55
2023-04-18T21:49:22.492Z,0.69
2023-04-18T21:52:26.190Z,0.82
2023-04-18T21:55:29.787Z,0.78
2023-04-18T21:58:34.186Z,0.61
2023-04-18T22:01:38.813Z,0.59
2023-04-18T22:04:43.663Z,0.67
2023-04-18T22:07:57.393Z,0.78
2023-04-18T22:11:02.554Z,0.77
2023-04-18T22:14:06.435Z,0.91
2023-04-18T22:17:10.054Z,0.95
2023-04-18T22:20:14.013Z,1.00
2023-04-18T22:23:17.753Z,1.10
2023-04-18T22:26:21.584Z,1.15
2023-04-18T22:29:24.986Z,1.26
2023-04-18T22:32:28.537Z,1.33
2023-04-18T22:35:32.642Z,1.23
2023-04-18T22:38:36.293Z,1.08
2023-04-18T22:41:40.204Z,1.16
2023-04-18T22:44:43.776Z,1.45
2023-04-18T22:47:47.674Z,1.71
2023-04-18T22:50:50.965Z,1.91
2023-04-18T22:53:54.918Z,1.97
2023-04-18T22:56:59.178Z,1.86
2023-04-18T23:00:05.123Z,1.72
2023-04-18T23:03:08.869Z,1.68
2023-04-18T23:06:13.540Z,1.55
2023-04-18T23:09:20.092Z,1.51
2023-04-18T23:12:24.000Z,1.45
2023-04-18T23:15:27.821Z,1.38
2023-04-18T23:18:31.832Z,1.55
2023-04-18T23:21:35.462Z,1.58
2023-04-18T23:24:39.858Z,1.50
2023-04-18T23:27:43.417Z,1.39
2023-04-18T23:30:48.889Z,1.33
2023-04-18T23:33:52.485Z,1.24
2023-04-18T23:36:56.519Z,1.20
2023-04-18T23:40:00.777Z,1.24
2023-04-18T23:43:05.052Z,1.20
2023-04-18T23:46:07.942Z,1.17
2023-04-18T23:49:11.964Z,1.23
2023-04-18T23:52:15.592Z,1.38
2023-04-18T23:55:19.611Z,1.51
2023-04-18T23:58:23.376Z,1.61
